sensor_id;sensor_type;location;lat;lon;timestamp;temperature;humidity
1568;DHT22;777;47.156;8.326;2023-02-25T00:00:43;7.30;99.90
1568;DHT22;777;47.156;8.326;2023-02-25T00:03:11;7.30;99.90
1568;DHT22;777;47.156;8.326;2023-02-25T00:05:41;7.20;99.90
1568;DHT22;777;47.156;8.326;2023-02-25T00:08:08;7.20;99.90
1568;DHT22;777;47.156;8.326;2023-02-25T00:10:35;7.20;99.90
1568;DHT22;777;47.156;8.326;2023-02-25T00:13:03;7.20;99.90
1568;DHT22;777;47.156;8.326;2023-02-25T00:15:30;7.20;99.90
1568;DHT22;777;47.156;8.326;2023-02-25T00:17:59;7.20;99.90
1568;DHT22;777;47.156;8.326;2023-02-25T00:20:26;7.20;99.90
1568;DHT22;777;47.156;8.326;2023-02-25T00:22:53;7.10;99.90
1568;DHT22;777;47.156;8.326;2023-02-25T00:25:20;7.10;99.90
1568;DHT22;777;47.156;8.326;2023-02-25T00:27:47;7.10;99.90
1568;DHT22;777;47.156;8.326;2023-02-25T00:30:14;7.10;99.90
1568;DHT22;777;47.156;8.326;2023-02-25T00:32:41;7.10;99.90
1568;DHT22;777;47.156;8.326;2023-02-25T00:35:12;7.10;99.90
1568;DHT22;777;47.156;8.326;2023-02-25T00:37:39;7.00;99.90
1568;DHT22;777;47.156;8.326;2023-02-25T00:40:08;7.00;99.90
1568;DHT22;777;47.156;8.326;2023-02-25T00:42:39;7.00;99.90
1568;DHT22;777;47.156;8.326;2023-02-25T00:45:07;7.00;99.90
1568;DHT22;777;47.156;8.326;2023-02-25T00:47:35;6.90;99.90
1568;DHT22;777;47.156;8.326;2023-02-25T00:50:02;6.90;99.90
1568;DHT22;777;47.156;8.326;2023-02-25T00:52:31;6.90;99.90
1568;DHT22;777;47.156;8.326;2023-02-25T00:54:59;6.80;99.90
1568;DHT22;777;47.156;8.326;2023-02-25T00:57:26;6.90;99.90
1568;DHT22;777;47.156;8.326;2023-02-25T00:59:53;6.90;99.90
1568;DHT22;777;47.156;8.326;2023-02-25T01:02:20;6.80;99.90
1568;DHT22;777;47.156;8.326;2023-02-25T01:04:47;6.90;99.90
1568;DHT22;777;47.156;8.326;2023-02-25T01:07:15;6.90;99.90
1568;DHT22;777;47.156;8.326;2023-02-25T01:09:43;6.90;99.90
1568;DHT22;777;47.156;8.326;2023-02-25T01:12:10;6.90;99.90
1568;DHT22;777;47.156;8.326;2023-02-25T01:14:37;6.80;99.90
1568;DHT22;777;47.156;8.326;2023-02-25T01:17:04;6.80;99.90
1568;DHT22;777;47.156;8.326;2023-02-25T01:19:34;6.80;99.90
1568;DHT22;777;47.156;8.326;2023-02-25T01:22:01;6.80;99.90
1568;DHT22;777;47.156;8.326;2023-02-25T01:24:31;6.80;99.90
1568;DHT22;777;47.156;8.326;2023-02-25T01:27:02;6.80;99.90
1568;DHT22;777;47.156;8.326;2023-02-25T01:29:32;6.70;99.90
1568;DHT22;777;47.156;8.326;2023-02-25T01:32:01;6.70;99.90
1568;DHT22;777;47.156;8.326;2023-02-25T01:34:29;6.70;99.90
1568;DHT22;777;47.156;8.326;2023-02-25T01:36:56;6.70;99.90
1568;DHT22;777;47.156;8.326;2023-02-25T01:39:25;6.70;99.90
1568;DHT22;777;47.156;8.326;2023-02-25T01:41:53;6.70;99.90
1568;DHT22;777;47.156;8.326;2023-02-25T01:44:27;6.80;99.90
1568;DHT22;777;47.156;8.326;2023-02-25T01:46:55;6.90;99.90
1568;DHT22;777;47.156;8.326;2023-02-25T01:49:24;6.90;99.90
1568;DHT22;777;47.156;8.326;2023-02-25T01:51:56;7.00;99.90
1568;DHT22;777;47.156;8.326;2023-02-25T01:57:45;6.90;99.90
1568;DHT22;777;47.156;8.326;2023-02-25T02:00:14;7.00;99.90
1568;DHT22;777;47.156;8.326;2023-02-25T02:02:42;6.90;99.90
1568;DHT22;777;47.156;8.326;2023-02-25T02:05:11;7.00;99.90
1568;DHT22;777;47.156;8.326;2023-02-25T02:07:41;7.00;99.90
1568;DHT22;777;47.156;8.326;2023-02-25T02:10:09;7.00;99.90
1568;DHT22;777;47.156;8.326;2023-02-25T02:12:38;7.00;99.90
1568;DHT22;777;47.156;8.326;2023-02-25T02:15:09;7.00;99.90
1568;DHT22;777;47.156;8.326;2023-02-25T02:17:42;7.00;99.90
1568;DHT22;777;47.156;8.326;2023-02-25T02:20:14;7.00;99.90
1568;DHT22;777;47.156;8.326;2023-02-25T02:23:11;6.90;99.90
1568;DHT22;777;47.156;8.326;2023-02-25T02:26:10;6.90;99.90
1568;DHT22;777;47.156;8.326;2023-02-25T02:31:50;6.90;99.90
1568;DHT22;777;47.156;8.326;2023-02-25T02:34:26;6.90;99.90
1568;DHT22;777;47.156;8.326;2023-02-25T02:37:04;6.90;99.90
1568;DHT22;777;47.156;8.326;2023-02-25T02:39:40;6.80;99.90
1568;DHT22;777;47.156;8.326;2023-02-25T02:42:16;6.90;99.90
1568;DHT22;777;47.156;8.326;2023-02-25T02:44:55;6.80;99.90
1568;DHT22;777;47.156;8.326;2023-02-25T02:47:28;6.90;99.90
1568;DHT22;777;47.156;8.326;2023-02-25T02:50:01;6.90;99.90
1568;DHT22;777;47.156;8.326;2023-02-25T02:52:31;6.80;99.90
1568;DHT22;777;47.156;8.326;2023-02-25T02:55:01;6.80;99.90
1568;DHT22;777;47.156;8.326;2023-02-25T02:57:31;6.70;99.90
1568;DHT22;777;47.156;8.326;2023-02-25T03:00:04;6.60;99.90
1568;DHT22;777;47.156;8.326;2023-02-25T03:02:42;6.60;99.90
1568;DHT22;777;47.156;8.326;2023-02-25T03:05:14;6.60;99.90
1568;DHT22;777;47.156;8.326;2023-02-25T03:07:47;6.50;99.90
1568;DHT22;777;47.156;8.326;2023-02-25T03:10:19;6.50;99.90
1568;DHT22;777;47.156;8.326;2023-02-25T03:12:48;6.40;99.90
1568;DHT22;777;47.156;8.326;2023-02-25T03:15:15;6.40;99.90
1568;DHT22;777;47.156;8.326;2023-02-25T03:17:47;6.30;99.90
1568;DHT22;777;47.156;8.326;2023-02-25T03:20:19;6.20;99.90
1568;DHT22;777;47.156;8.326;2023-02-25T03:22:49;6.20;99.90
1568;DHT22;777;47.156;8.326;2023-02-25T03:25:20;6.10;99.90
1568;DHT22;777;47.156;8.326;2023-02-25T03:27:49;6.00;99.90
1568;DHT22;777;47.156;8.326;2023-02-25T03:30:26;6.00;99.90
1568;DHT22;777;47.156;8.326;2023-02-25T03:32:58;5.90;99.90
1568;DHT22;777;47.156;8.326;2023-02-25T03:35:27;5.80;99.90
1568;DHT22;777;47.156;8.326;2023-02-25T03:38:00;5.80;99.90
1568;DHT22;777;47.156;8.326;2023-02-25T03:40:29;5.70;99.90
1568;DHT22;777;47.156;8.326;2023-02-25T03:43:00;5.60;99.90
1568;DHT22;777;47.156;8.326;2023-02-25T03:45:30;5.60;99.90
1568;DHT22;777;47.156;8.326;2023-02-25T03:48:01;5.50;99.90
1568;DHT22;777;47.156;8.326;2023-02-25T03:50:30;5.40;99.90
1568;DHT22;777;47.156;8.326;2023-02-25T03:53:02;5.40;99.90
1568;DHT22;777;47.156;8.326;2023-02-25T03:55:48;5.30;99.90
1568;DHT22;777;47.156;8.326;2023-02-25T03:58:16;5.20;99.90
1568;DHT22;777;47.156;8.326;2023-02-25T04:00:46;5.20;99.90
1568;DHT22;777;47.156;8.326;2023-02-25T04:03:15;5.10;99.90
1568;DHT22;777;47.156;8.326;2023-02-25T04:05:42;5.00;99.90
1568;DHT22;777;47.156;8.326;2023-02-25T04:08:10;5.00;99.90
1568;DHT22;777;47.156;8.326;2023-02-25T04:10:41;4.90;99.90
1568;DHT22;777;47.156;8.326;2023-02-25T04:13:09;4.90;99.90
1568;DHT22;777;47.156;8.326;2023-02-25T04:15:36;4.90;99.90
1568;DHT22;777;47.156;8.326;2023-02-25T04:18:04;4.90;99.90
1568;DHT22;777;47.156;8.326;2023-02-25T04:20:33;4.90;99.90
1568;DHT22;777;47.156;8.326;2023-02-25T04:23:00;4.80;99.90
1568;DHT22;777;47.156;8.326;2023-02-25T04:25:27;4.80;99.90
1568;DHT22;777;47.156;8.326;2023-02-25T04:27:55;4.80;99.90
1568;DHT22;777;47.156;8.326;2023-02-25T04:30:21;4.70;99.90
1568;DHT22;777;47.156;8.326;2023-02-25T04:32:48;4.70;99.90
1568;DHT22;777;47.156;8.326;2023-02-25T04:35:16;4.80;99.90
1568;DHT22;777;47.156;8.326;2023-02-25T04:37:44;4.80;99.90
1568;DHT22;777;47.156;8.326;2023-02-25T04:40:13;4.80;99.90
1568;DHT22;777;47.156;8.326;2023-02-25T04:42:42;4.80;99.90
1568;DHT22;777;47.156;8.326;2023-02-25T04:45:10;4.80;99.90
1568;DHT22;777;47.156;8.326;2023-02-25T04:47:37;4.80;99.90
1568;DHT22;777;47.156;8.326;2023-02-25T04:50:06;4.80;99.90
1568;DHT22;777;47.156;8.326;2023-02-25T04:52:34;4.80;99.90
1568;DHT22;777;47.156;8.326;2023-02-25T04:55:03;4.90;99.90
1568;DHT22;777;47.156;8.326;2023-02-25T04:57:30;4.80;99.90
1568;DHT22;777;47.156;8.326;2023-02-25T04:59:57;4.80;99.90
1568;DHT22;777;47.156;8.326;2023-02-25T05:02:24;4.70;99.90
1568;DHT22;777;47.156;8.326;2023-02-25T05:04:51;4.70;99.90
1568;DHT22;777;47.156;8.326;2023-02-25T05:07:18;4.80;99.90
1568;DHT22;777;47.156;8.326;2023-02-25T05:09:45;4.80;99.90
1568;DHT22;777;47.156;8.326;2023-02-25T05:12:13;4.70;99.90
1568;DHT22;777;47.156;8.326;2023-02-25T05:14:40;4.60;99.90
1568;DHT22;777;47.156;8.326;2023-02-25T05:17:07;4.70;99.90
1568;DHT22;777;47.156;8.326;2023-02-25T05:19:34;4.70;99.90
1568;DHT22;777;47.156;8.326;2023-02-25T05:22:01;4.70;99.90
1568;DHT22;777;47.156;8.326;2023-02-25T05:24:28;4.70;99.90
1568;DHT22;777;47.156;8.326;2023-02-25T05:26:56;4.50;99.90
1568;DHT22;777;47.156;8.326;2023-02-25T05:29:24;4.50;99.90
1568;DHT22;777;47.156;8.326;2023-02-25T05:31:51;4.50;99.90
1568;DHT22;777;47.156;8.326;2023-02-25T05:34:19;4.50;99.90
1568;DHT22;777;47.156;8.326;2023-02-25T05:36:47;4.50;99.90
1568;DHT22;777;47.156;8.326;2023-02-25T05:39:14;4.50;99.90
1568;DHT22;777;47.156;8.326;2023-02-25T05:41:41;4.60;99.90
1568;DHT22;777;47.156;8.326;2023-02-25T05:44:09;4.70;99.90
1568;DHT22;777;47.156;8.326;2023-02-25T05:46:37;4.50;99.90
1568;DHT22;777;47.156;8.326;2023-02-25T05:49:04;4.30;99.90
1568;DHT22;777;47.156;8.326;2023-02-25T05:51:31;4.20;99.90
1568;DHT22;777;47.156;8.326;2023-02-25T05:53:58;4.20;99.90
1568;DHT22;777;47.156;8.326;2023-02-25T05:56:25;4.30;99.90
1568;DHT22;777;47.156;8.326;2023-02-25T05:58:53;4.40;99.90
1568;DHT22;777;47.156;8.326;2023-02-25T06:01:22;4.40;99.90
1568;DHT22;777;47.156;8.326;2023-02-25T06:03:54;4.30;99.90
1568;DHT22;777;47.156;8.326;2023-02-25T06:06:24;4.30;99.90
1568;DHT22;777;47.156;8.326;2023-02-25T06:08:52;4.30;99.90
1568;DHT22;777;47.156;8.326;2023-02-25T06:11:21;4.40;99.90
1568;DHT22;777;47.156;8.326;2023-02-25T06:13:48;4.30;99.90
1568;DHT22;777;47.156;8.326;2023-02-25T06:16:16;4.30;99.90
1568;DHT22;777;47.156;8.326;2023-02-25T06:18:44;4.30;99.90
1568;DHT22;777;47.156;8.326;2023-02-25T06:21:14;4.30;99.90
1568;DHT22;777;47.156;8.326;2023-02-25T06:23:42;4.30;99.90
1568;DHT22;777;47.156;8.326;2023-02-25T06:26:12;4.10;99.90
1568;DHT22;777;47.156;8.326;2023-02-25T06:28:40;4.20;99.90
1568;DHT22;777;47.156;8.326;2023-02-25T06:31:08;4.20;99.90
1568;DHT22;777;47.156;8.326;2023-02-25T06:33:35;4.10;99.90
1568;DHT22;777;47.156;8.326;2023-02-25T06:36:03;4.10;99.90
1568;DHT22;777;47.156;8.326;2023-02-25T06:38:32;4.10;99.90
1568;DHT22;777;47.156;8.326;2023-02-25T06:41:03;4.10;99.90
1568;DHT22;777;47.156;8.326;2023-02-25T06:43:30;4.10;99.90
1568;DHT22;777;47.156;8.326;2023-02-25T06:45:57;4.20;99.90
1568;DHT22;777;47.156;8.326;2023-02-25T06:48:24;4.10;99.90
1568;DHT22;777;47.156;8.326;2023-02-25T06:50:51;4.20;99.90
1568;DHT22;777;47.156;8.326;2023-02-25T06:53:18;4.20;99.90
1568;DHT22;777;47.156;8.326;2023-02-25T06:55:48;4.00;99.90
1568;DHT22;777;47.156;8.326;2023-02-25T06:58:15;4.10;99.90
1568;DHT22;777;47.156;8.326;2023-02-25T07:00:42;4.10;99.90
1568;DHT22;777;47.156;8.326;2023-02-25T07:03:10;4.20;99.90
1568;DHT22;777;47.156;8.326;2023-02-25T07:05:37;4.20;99.90
1568;DHT22;777;47.156;8.326;2023-02-25T07:08:04;4.20;99.90
1568;DHT22;777;47.156;8.326;2023-02-25T07:10:31;4.20;99.90
1568;DHT22;777;47.156;8.326;2023-02-25T07:13:00;4.20;99.90
1568;DHT22;777;47.156;8.326;2023-02-25T07:15:27;4.20;99.90
1568;DHT22;777;47.156;8.326;2023-02-25T07:17:54;4.20;99.90
1568;DHT22;777;47.156;8.326;2023-02-25T07:20:20;4.20;99.90
1568;DHT22;777;47.156;8.326;2023-02-25T07:22:47;4.20;99.90
1568;DHT22;777;47.156;8.326;2023-02-25T07:25:14;4.20;99.90
1568;DHT22;777;47.156;8.326;2023-02-25T07:27:42;4.20;99.90
1568;DHT22;777;47.156;8.326;2023-02-25T07:30:12;4.20;99.90
1568;DHT22;777;47.156;8.326;2023-02-25T07:32:39;4.20;99.90
1568;DHT22;777;47.156;8.326;2023-02-25T07:35:07;4.30;99.90
1568;DHT22;777;47.156;8.326;2023-02-25T07:37:34;4.20;99.90
1568;DHT22;777;47.156;8.326;2023-02-25T07:40:03;4.20;99.90
1568;DHT22;777;47.156;8.326;2023-02-25T07:42:30;4.30;99.90
1568;DHT22;777;47.156;8.326;2023-02-25T07:44:58;4.20;99.90
1568;DHT22;777;47.156;8.326;2023-02-25T07:47:27;4.30;99.90
1568;DHT22;777;47.156;8.326;2023-02-25T07:49:53;4.40;99.90
1568;DHT22;777;47.156;8.326;2023-02-25T07:52:21;4.50;99.90
1568;DHT22;777;47.156;8.326;2023-02-25T07:54:48;4.60;99.90
1568;DHT22;777;47.156;8.326;2023-02-25T07:57:15;4.50;99.90
1568;DHT22;777;47.156;8.326;2023-02-25T07:59:41;4.50;99.90
1568;DHT22;777;47.156;8.326;2023-02-25T08:02:10;4.50;99.90
1568;DHT22;777;47.156;8.326;2023-02-25T08:04:38;4.40;99.90
1568;DHT22;777;47.156;8.326;2023-02-25T08:07:05;4.30;99.90
1568;DHT22;777;47.156;8.326;2023-02-25T08:09:32;4.30;99.90
1568;DHT22;777;47.156;8.326;2023-02-25T08:11:59;4.20;99.90
1568;DHT22;777;47.156;8.326;2023-02-25T08:14:26;4.20;99.90
1568;DHT22;777;47.156;8.326;2023-02-25T08:16:55;4.20;99.90
1568;DHT22;777;47.156;8.326;2023-02-25T08:19:22;4.30;99.90
1568;DHT22;777;47.156;8.326;2023-02-25T08:21:50;4.30;99.90
1568;DHT22;777;47.156;8.326;2023-02-25T08:24:18;4.30;99.90
1568;DHT22;777;47.156;8.326;2023-02-25T08:26:45;4.30;99.90
1568;DHT22;777;47.156;8.326;2023-02-25T08:29:12;4.40;99.90
1568;DHT22;777;47.156;8.326;2023-02-25T08:31:40;4.40;99.90
1568;DHT22;777;47.156;8.326;2023-02-25T08:34:06;4.40;99.90
1568;DHT22;777;47.156;8.326;2023-02-25T08:36:34;4.40;99.90
1568;DHT22;777;47.156;8.326;2023-02-25T08:39:03;4.40;99.90
1568;DHT22;777;47.156;8.326;2023-02-25T08:41:30;4.50;99.90
1568;DHT22;777;47.156;8.326;2023-02-25T08:43:58;4.50;99.90
1568;DHT22;777;47.156;8.326;2023-02-25T08:46:28;4.60;99.90
1568;DHT22;777;47.156;8.326;2023-02-25T08:48:56;4.60;99.90
1568;DHT22;777;47.156;8.326;2023-02-25T08:51:25;4.60;99.90
1568;DHT22;777;47.156;8.326;2023-02-25T08:53:59;4.70;99.90
1568;DHT22;777;47.156;8.326;2023-02-25T08:56:28;4.70;99.90
1568;DHT22;777;47.156;8.326;2023-02-25T08:58:55;4.70;99.90
1568;DHT22;777;47.156;8.326;2023-02-25T09:01:22;4.80;99.90
1568;DHT22;777;47.156;8.326;2023-02-25T09:03:50;4.90;99.90
1568;DHT22;777;47.156;8.326;2023-02-25T09:06:17;4.90;99.90
1568;DHT22;777;47.156;8.326;2023-02-25T09:08:45;5.00;99.90
1568;DHT22;777;47.156;8.326;2023-02-25T09:11:12;5.10;99.90
1568;DHT22;777;47.156;8.326;2023-02-25T09:13:40;5.10;99.90
1568;DHT22;777;47.156;8.326;2023-02-25T09:16:08;5.10;99.90
1568;DHT22;777;47.156;8.326;2023-02-25T09:18:35;5.10;99.90
1568;DHT22;777;47.156;8.326;2023-02-25T09:21:02;5.00;99.90
1568;DHT22;777;47.156;8.326;2023-02-25T09:23:29;5.00;99.90
1568;DHT22;777;47.156;8.326;2023-02-25T09:26:00;4.90;99.90
1568;DHT22;777;47.156;8.326;2023-02-25T09:28:27;5.00;99.90
1568;DHT22;777;47.156;8.326;2023-02-25T09:30:57;4.90;99.90
1568;DHT22;777;47.156;8.326;2023-02-25T09:33:24;5.00;99.90
1568;DHT22;777;47.156;8.326;2023-02-25T09:35:51;5.00;99.90
1568;DHT22;777;47.156;8.326;2023-02-25T09:38:18;4.90;99.90
1568;DHT22;777;47.156;8.326;2023-02-25T09:40:47;4.90;99.90
1568;DHT22;777;47.156;8.326;2023-02-25T09:43:20;5.00;99.90
1568;DHT22;777;47.156;8.326;2023-02-25T09:45:49;5.00;99.90
1568;DHT22;777;47.156;8.326;2023-02-25T09:48:23;5.10;99.90
1568;DHT22;777;47.156;8.326;2023-02-25T09:50:55;5.30;99.90
1568;DHT22;777;47.156;8.326;2023-02-25T09:53:28;5.50;99.90
1568;DHT22;777;47.156;8.326;2023-02-25T09:55:57;5.50;99.90
1568;DHT22;777;47.156;8.326;2023-02-25T09:58:29;5.60;99.90
1568;DHT22;777;47.156;8.326;2023-02-25T10:01:02;5.60;99.90
1568;DHT22;777;47.156;8.326;2023-02-25T10:03:52;5.60;99.90
1568;DHT22;777;47.156;8.326;2023-02-25T10:06:28;5.70;99.90
1568;DHT22;777;47.156;8.326;2023-02-25T10:09:04;5.60;99.90
1568;DHT22;777;47.156;8.326;2023-02-25T10:11:45;5.40;99.90
1568;DHT22;777;47.156;8.326;2023-02-25T10:14:22;5.30;99.90
1568;DHT22;777;47.156;8.326;2023-02-25T10:17:02;5.20;99.90
1568;DHT22;777;47.156;8.326;2023-02-25T10:19:42;5.20;99.90
1568;DHT22;777;47.156;8.326;2023-02-25T10:22:28;5.40;99.90
1568;DHT22;777;47.156;8.326;2023-02-25T10:25:02;5.50;99.90
1568;DHT22;777;47.156;8.326;2023-02-25T10:27:37;5.60;99.90
1568;DHT22;777;47.156;8.326;2023-02-25T10:30:09;5.70;99.90
1568;DHT22;777;47.156;8.326;2023-02-25T10:32:38;5.60;99.90
1568;DHT22;777;47.156;8.326;2023-02-25T10:35:15;5.50;99.90
1568;DHT22;777;47.156;8.326;2023-02-25T10:37:42;5.50;99.90
1568;DHT22;777;47.156;8.326;2023-02-25T10:40:14;5.60;99.90
1568;DHT22;777;47.156;8.326;2023-02-25T10:45:12;5.70;99.90
1568;DHT22;777;47.156;8.326;2023-02-25T10:47:46;5.80;99.90
1568;DHT22;777;47.156;8.326;2023-02-25T10:50:23;6.00;99.90
1568;DHT22;777;47.156;8.326;2023-02-25T10:52:57;6.10;99.90
1568;DHT22;777;47.156;8.326;2023-02-25T10:55:38;6.20;99.90
1568;DHT22;777;47.156;8.326;2023-02-25T10:58:27;6.30;99.90
1568;DHT22;777;47.156;8.326;2023-02-25T11:00:59;6.40;99.90
1568;DHT22;777;47.156;8.326;2023-02-25T11:03:29;6.40;99.90
1568;DHT22;777;47.156;8.326;2023-02-25T11:06:10;6.40;99.90
1568;DHT22;777;47.156;8.326;2023-02-25T11:08:38;6.40;99.90
1568;DHT22;777;47.156;8.326;2023-02-25T11:11:13;6.40;99.90
1568;DHT22;777;47.156;8.326;2023-02-25T11:13:41;6.40;99.90
1568;DHT22;777;47.156;8.326;2023-02-25T11:16:10;6.50;99.90
1568;DHT22;777;47.156;8.326;2023-02-25T11:18:38;6.50;99.90
1568;DHT22;777;47.156;8.326;2023-02-25T11:21:09;6.30;99.90
1568;DHT22;777;47.156;8.326;2023-02-25T11:23:43;6.40;99.90
1568;DHT22;777;47.156;8.326;2023-02-25T11:26:14;6.50;99.90
1568;DHT22;777;47.156;8.326;2023-02-25T11:28:44;6.70;99.90
1568;DHT22;777;47.156;8.326;2023-02-25T11:31:16;6.70;99.90
1568;DHT22;777;47.156;8.326;2023-02-25T11:33:48;6.70;99.90
1568;DHT22;777;47.156;8.326;2023-02-25T11:36:21;6.80;99.90
1568;DHT22;777;47.156;8.326;2023-02-25T11:38:49;6.80;99.90
1568;DHT22;777;47.156;8.326;2023-02-25T11:41:30;6.80;99.90
1568;DHT22;777;47.156;8.326;2023-02-25T11:44:16;6.80;99.90
1568;DHT22;777;47.156;8.326;2023-02-25T11:46:51;6.40;99.90
1568;DHT22;777;47.156;8.326;2023-02-25T11:49:29;6.20;99.90
1568;DHT22;777;47.156;8.326;2023-02-25T11:52:05;6.10;99.90
1568;DHT22;777;47.156;8.326;2023-02-25T11:54:41;6.00;99.90
1568;DHT22;777;47.156;8.326;2023-02-25T11:57:15;6.10;99.90
1568;DHT22;777;47.156;8.326;2023-02-25T11:59:46;6.20;99.90
1568;DHT22;777;47.156;8.326;2023-02-25T12:02:27;6.30;99.90
1568;DHT22;777;47.156;8.326;2023-02-25T12:05:30;6.10;99.90
1568;DHT22;777;47.156;8.326;2023-02-25T12:08:18;5.90;99.90
1568;DHT22;777;47.156;8.326;2023-02-25T12:14:20;5.80;99.90
1568;DHT22;777;47.156;8.326;2023-02-25T12:23:14;5.80;99.90
1568;DHT22;777;47.156;8.326;2023-02-25T12:25:50;5.80;99.90
1568;DHT22;777;47.156;8.326;2023-02-25T12:28:43;5.70;99.90
1568;DHT22;777;47.156;8.326;2023-02-25T12:35:02;5.90;99.90
1568;DHT22;777;47.156;8.326;2023-02-25T12:37:49;6.20;99.90
1568;DHT22;777;47.156;8.326;2023-02-25T12:40:37;6.40;99.90
1568;DHT22;777;47.156;8.326;2023-02-25T12:43:11;6.50;99.90
1568;DHT22;777;47.156;8.326;2023-02-25T12:45:57;6.40;99.90
1568;DHT22;777;47.156;8.326;2023-02-25T12:51:35;6.30;99.90
1568;DHT22;777;47.156;8.326;2023-02-25T12:54:08;6.50;99.90
1568;DHT22;777;47.156;8.326;2023-02-25T12:57:14;6.40;99.90
1568;DHT22;777;47.156;8.326;2023-02-25T12:59:58;6.00;99.90
1568;DHT22;777;47.156;8.326;2023-02-25T13:02:40;5.90;99.90
1568;DHT22;777;47.156;8.326;2023-02-25T13:05:25;5.80;99.90
1568;DHT22;777;47.156;8.326;2023-02-25T13:08:23;5.70;99.90
1568;DHT22;777;47.156;8.326;2023-02-25T13:11:01;5.60;99.90
1568;DHT22;777;47.156;8.326;2023-02-25T13:16:46;5.40;99.90
1568;DHT22;777;47.156;8.326;2023-02-25T13:19:37;5.40;99.90
1568;DHT22;777;47.156;8.326;2023-02-25T13:22:19;5.40;99.90
1568;DHT22;777;47.156;8.326;2023-02-25T13:24:57;5.40;99.90
1568;DHT22;777;47.156;8.326;2023-02-25T13:27:47;5.50;99.90
1568;DHT22;777;47.156;8.326;2023-02-25T13:30:37;5.50;99.90
1568;DHT22;777;47.156;8.326;2023-02-25T13:33:20;5.30;99.90
1568;DHT22;777;47.156;8.326;2023-02-25T13:35:51;5.20;99.90
1568;DHT22;777;47.156;8.326;2023-02-25T13:38:37;4.90;99.90
1568;DHT22;777;47.156;8.326;2023-02-25T13:41:17;4.80;99.90
1568;DHT22;777;47.156;8.326;2023-02-25T13:44:11;4.80;99.90
1568;DHT22;777;47.156;8.326;2023-02-25T13:46:58;4.70;99.90
1568;DHT22;777;47.156;8.326;2023-02-25T13:52:58;4.60;99.90
1568;DHT22;777;47.156;8.326;2023-02-25T13:55:36;4.60;99.90
1568;DHT22;777;47.156;8.326;2023-02-25T13:58:25;4.50;99.90
1568;DHT22;777;47.156;8.326;2023-02-25T14:01:18;4.50;99.90
1568;DHT22;777;47.156;8.326;2023-02-25T14:07:17;4.40;99.90
1568;DHT22;777;47.156;8.326;2023-02-25T14:09:53;4.40;99.90
1568;DHT22;777;47.156;8.326;2023-02-25T14:12:36;4.40;99.90
1568;DHT22;777;47.156;8.326;2023-02-25T14:15:19;4.40;99.90
1568;DHT22;777;47.156;8.326;2023-02-25T14:18:14;4.30;99.90
1568;DHT22;777;47.156;8.326;2023-02-25T14:20:58;4.20;99.90
1568;DHT22;777;47.156;8.326;2023-02-25T14:23:41;4.20;99.90
1568;DHT22;777;47.156;8.326;2023-02-25T14:26:23;4.20;99.90
1568;DHT22;777;47.156;8.326;2023-02-25T14:29:06;4.20;99.90
1568;DHT22;777;47.156;8.326;2023-02-25T14:31:47;4.20;99.90
1568;DHT22;777;47.156;8.326;2023-02-25T14:34:30;4.20;99.90
1568;DHT22;777;47.156;8.326;2023-02-25T14:37:12;4.10;99.90
1568;DHT22;777;47.156;8.326;2023-02-25T14:39:55;4.20;99.90
1568;DHT22;777;47.156;8.326;2023-02-25T14:42:46;4.20;99.90
1568;DHT22;777;47.156;8.326;2023-02-25T14:45:19;4.20;99.90
1568;DHT22;777;47.156;8.326;2023-02-25T14:47:53;4.20;99.90
1568;DHT22;777;47.156;8.326;2023-02-25T14:50:26;4.20;99.90
1568;DHT22;777;47.156;8.326;2023-02-25T14:53:18;4.30;99.90
1568;DHT22;777;47.156;8.326;2023-02-25T14:56:24;4.20;99.90
1568;DHT22;777;47.156;8.326;2023-02-25T14:59:13;4.20;99.90
1568;DHT22;777;47.156;8.326;2023-02-25T15:05:15;4.30;99.90
1568;DHT22;777;47.156;8.326;2023-02-25T15:07:55;4.30;99.90
1568;DHT22;777;47.156;8.326;2023-02-25T15:10:35;4.20;99.90
1568;DHT22;777;47.156;8.326;2023-02-25T15:13:44;4.30;99.90
1568;DHT22;777;47.156;8.326;2023-02-25T15:16:52;4.20;99.90
1568;DHT22;777;47.156;8.326;2023-02-25T15:19:51;4.20;99.90
1568;DHT22;777;47.156;8.326;2023-02-25T15:22:25;4.20;99.90
1568;DHT22;777;47.156;8.326;2023-02-25T15:24:53;4.10;99.90
1568;DHT22;777;47.156;8.326;2023-02-25T15:27:40;4.00;99.90
1568;DHT22;777;47.156;8.326;2023-02-25T15:30:11;4.00;99.90
1568;DHT22;777;47.156;8.326;2023-02-25T15:33:12;3.90;99.90
1568;DHT22;777;47.156;8.326;2023-02-25T15:35:57;3.80;99.90
1568;DHT22;777;47.156;8.326;2023-02-25T15:38:42;3.90;99.90
1568;DHT22;777;47.156;8.326;2023-02-25T15:41:41;3.90;99.90
1568;DHT22;777;47.156;8.326;2023-02-25T15:44:38;3.80;99.90
1568;DHT22;777;47.156;8.326;2023-02-25T15:47:40;3.80;99.90
1568;DHT22;777;47.156;8.326;2023-02-25T15:50:09;3.90;99.90
1568;DHT22;777;47.156;8.326;2023-02-25T15:53:05;3.80;99.90
1568;DHT22;777;47.156;8.326;2023-02-25T15:55:38;3.80;99.90
1568;DHT22;777;47.156;8.326;2023-02-25T15:58:40;3.80;99.90
1568;DHT22;777;47.156;8.326;2023-02-25T16:04:46;3.80;99.90
1568;DHT22;777;47.156;8.326;2023-02-25T16:07:17;3.90;99.90
1568;DHT22;777;47.156;8.326;2023-02-25T16:09:52;3.70;99.90
1568;DHT22;777;47.156;8.326;2023-02-25T16:12:21;3.80;99.90
1568;DHT22;777;47.156;8.326;2023-02-25T16:14:49;3.70;99.90
1568;DHT22;777;47.156;8.326;2023-02-25T16:17:19;3.80;99.90
1568;DHT22;777;47.156;8.326;2023-02-25T16:19:53;3.80;99.90
1568;DHT22;777;47.156;8.326;2023-02-25T16:22:23;3.80;99.90
1568;DHT22;777;47.156;8.326;2023-02-25T16:24:53;3.70;99.90
1568;DHT22;777;47.156;8.326;2023-02-25T16:27:36;3.70;99.90
1568;DHT22;777;47.156;8.326;2023-02-25T16:30:11;3.80;99.90
1568;DHT22;777;47.156;8.326;2023-02-25T16:32:42;3.70;99.90
1568;DHT22;777;47.156;8.326;2023-02-25T16:35:21;3.60;99.90
1568;DHT22;777;47.156;8.326;2023-02-25T16:37:54;3.60;99.90
1568;DHT22;777;47.156;8.326;2023-02-25T16:40:28;3.50;99.90
1568;DHT22;777;47.156;8.326;2023-02-25T16:42:57;3.50;99.90
1568;DHT22;777;47.156;8.326;2023-02-25T16:45:27;3.50;99.90
1568;DHT22;777;47.156;8.326;2023-02-25T16:47:57;3.50;99.90
1568;DHT22;777;47.156;8.326;2023-02-25T16:50:28;3.50;99.90
1568;DHT22;777;47.156;8.326;2023-02-25T16:52:57;3.40;99.90
1568;DHT22;777;47.156;8.326;2023-02-25T16:55:28;3.40;99.90
1568;DHT22;777;47.156;8.326;2023-02-25T16:58:01;3.40;99.90
1568;DHT22;777;47.156;8.326;2023-02-25T17:00:28;3.40;99.90
1568;DHT22;777;47.156;8.326;2023-02-25T17:02:59;3.40;99.90
1568;DHT22;777;47.156;8.326;2023-02-25T17:05:29;3.40;99.90
1568;DHT22;777;47.156;8.326;2023-02-25T17:07:58;3.40;99.90
1568;DHT22;777;47.156;8.326;2023-02-25T17:10:29;3.40;99.90
1568;DHT22;777;47.156;8.326;2023-02-25T17:12:57;3.30;99.90
1568;DHT22;777;47.156;8.326;2023-02-25T17:15:28;3.30;99.90
1568;DHT22;777;47.156;8.326;2023-02-25T17:18:01;3.30;99.90
1568;DHT22;777;47.156;8.326;2023-02-25T17:20:33;3.20;99.90
1568;DHT22;777;47.156;8.326;2023-02-25T17:23:04;3.20;99.90
1568;DHT22;777;47.156;8.326;2023-02-25T17:25:36;3.20;99.90
1568;DHT22;777;47.156;8.326;2023-02-25T17:28:05;3.20;99.90
1568;DHT22;777;47.156;8.326;2023-02-25T17:30:42;3.20;99.90
1568;DHT22;777;47.156;8.326;2023-02-25T17:33:19;3.20;99.90
1568;DHT22;777;47.156;8.326;2023-02-25T17:35:50;3.20;99.90
1568;DHT22;777;47.156;8.326;2023-02-25T17:38:21;3.10;99.90
1568;DHT22;777;47.156;8.326;2023-02-25T17:40:48;3.10;99.90
1568;DHT22;777;47.156;8.326;2023-02-25T17:43:19;3.10;99.90
1568;DHT22;777;47.156;8.326;2023-02-25T17:45:55;3.10;99.90
1568;DHT22;777;47.156;8.326;2023-02-25T17:48:25;3.10;99.90
1568;DHT22;777;47.156;8.326;2023-02-25T17:50:57;3.00;99.90
1568;DHT22;777;47.156;8.326;2023-02-25T17:53:37;3.00;99.90